createdAt,value
2023-03-30T00:02:45.684Z,59.46
2023-03-30T00:08:33.615Z,59.65
2023-03-30T00:14:00.673Z,59.89
2023-03-30T00:19:04.090Z,60.34
2023-03-30T00:24:07.343Z,60.49
2023-03-30T00:29:30.927Z,60.61
2023-03-30T00:35:01.149Z,60.93
2023-03-30T00:40:41.011Z,61.11
2023-03-30T00:45:44.737Z,61.10
2023-03-30T00:50:55.862Z,61.56
2023-03-30T00:56:05.097Z,61.80
2023-03-30T01:01:26.018Z,62.32
2023-03-30T01:06:40.642Z,62.43
2023-03-30T01:11:49.977Z,62.61
2023-03-30T01:17:09.340Z,62.86
2023-03-30T01:22:35.057Z,63.14
2023-03-30T01:28:48.882Z,62.95
2023-03-30T01:35:00.637Z,63.51
2023-03-30T01:40:24.664Z,63.37
2023-03-30T01:46:22.410Z,63.59
2023-03-30T01:51:38.759Z,63.90
2023-03-30T01:56:51.891Z,63.69
2023-03-30T02:02:06.611Z,63.72
2023-03-30T02:07:32.195Z,63.87
2023-03-30T02:13:01.064Z,64.05
2023-03-30T02:18:25.484Z,64.13
2023-03-30T02:23:35.524Z,64.51
2023-03-30T02:28:39.796Z,64.28
2023-03-30T02:34:04.511Z,64.55
2023-03-30T02:39:36.878Z,64.69
2023-03-30T02:45:55.461Z,64.93
2023-03-30T02:51:32.175Z,64.90
2023-03-30T02:58:13.968Z,65.11
2023-03-30T03:03:54.043Z,65.63
2023-03-30T03:09:44.917Z,65.73
2023-03-30T03:15:04.031Z,66.02
2023-03-30T03:21:14.775Z,65.83
2023-03-30T03:26:29.877Z,65.85
2023-03-30T03:31:37.150Z,66.44
2023-03-30T03:36:55.031Z,65.97
2023-03-30T03:42:02.253Z,65.91
2023-03-30T03:47:05.791Z,66.28
2023-03-30T03:52:10.969Z,66.18
2023-03-30T03:57:34.505Z,66.38
2023-03-30T04:02:42.289Z,66.47
2023-03-30T04:07:52.063Z,66.59
2023-03-30T04:12:57.074Z,66.85
2023-03-30T04:18:19.440Z,67.10
2023-03-30T04:23:53.540Z,67.33
2023-03-30T04:29:07.017Z,67.32
2023-03-30T04:34:43.038Z,67.55
2023-03-30T04:40:13.264Z,67.89
2023-03-30T04:45:36.817Z,67.97
2023-03-30T04:51:15.475Z,68.15
2023-03-30T04:56:37.551Z,68.09
2023-03-30T05:02:03.330Z,68.34
2023-03-30T05:08:16.185Z,68.49
2023-03-30T05:14:15.782Z,67.97
2023-03-30T05:19:51.601Z,67.95
2023-03-30T05:25:30.396Z,67.79
2023-03-30T05:30:56.229Z,67.90
2023-03-30T05:36:40.054Z,68.20
2023-03-30T05:42:05.750Z,68.33
2023-03-30T05:47:51.970Z,68.71
2023-03-30T05:54:23.112Z,68.58
2023-03-30T05:59:38.501Z,68.63
2023-03-30T06:05:03.434Z,68.96
2023-03-30T06:10:08.198Z,68.45
2023-03-30T06:16:03.742Z,68.61
2023-03-30T06:21:13.896Z,68.86
2023-03-30T06:26:43.529Z,68.96
2023-03-30T06:32:00.839Z,68.54
2023-03-30T06:37:34.282Z,68.79
2023-03-30T06:42:44.299Z,68.49
2023-03-30T06:48:09.427Z,67.95
2023-03-30T06:53:24.363Z,67.66
2023-03-30T06:58:36.722Z,67.86
2023-03-30T07:03:53.594Z,67.62
2023-03-30T07:09:06.428Z,67.60
2023-03-30T07:14:13.105Z,67.70
2023-03-30T07:19:27.761Z,67.69
2023-03-30T07:25:37.325Z,67.84
2023-03-30T07:31:20.061Z,68.05
2023-03-30T07:36:57.734Z,67.94
2023-03-30T07:42:06.452Z,67.85
2023-03-30T07:47:30.678Z,67.39
2023-03-30T07:53:06.962Z,67.20
2023-03-30T07:58:37.640Z,67.44
2023-03-30T08:03:58.151Z,67.49
2023-03-30T08:09:12.923Z,67.30
2023-03-30T08:14:19.699Z,67.18
2023-03-30T08:19:28.738Z,66.69
2023-03-30T08:24:44.525Z,66.72
2023-03-30T08:29:49.014Z,66.90
2023-03-30T08:34:55.133Z,66.97
2023-03-30T08:40:01.839Z,67.35
2023-03-30T08:45:10.800Z,67.50
2023-03-30T08:50:22.012Z,67.53
2023-03-30T08:55:48.846Z,67.37
2023-03-30T09:01:19.241Z,67.26
2023-03-30T09:07:01.802Z,67.59
2023-03-30T09:12:22.493Z,67.66
2023-03-30T09:17:37.934Z,67.86
2023-03-30T09:22:51.276Z,67.65
2023-03-30T09:28:03.702Z,67.85
2023-03-30T09:33:13.865Z,67.98
2023-03-30T09:38:21.660Z,68.29
2023-03-30T09:43:46.548Z,68.48
2023-03-30T09:48:51.683Z,68.73
2023-03-30T09:54:07.617Z,68.25
2023-03-30T09:59:42.135Z,67.66
2023-03-30T10:04:56.931Z,67.26
2023-03-30T10:10:34.316Z,66.74
2023-03-30T10:16:07.197Z,66.42
2023-03-30T10:21:19.715Z,65.95
2023-03-30T10:26:30.714Z,66.03
2023-03-30T10:31:37.018Z,65.74
2023-03-30T10:36:41.189Z,65.27
2023-03-30T10:42:09.195Z,65.20
2023-03-30T10:47:29.941Z,65.14
2023-03-30T10:53:39.469Z,64.92
2023-03-30T10:58:49.509Z,64.18
2023-03-30T11:04:16.151Z,63.76
2023-03-30T11:09:30.365Z,63.86
2023-03-30T11:14:47.830Z,62.78
2023-03-30T11:20:27.373Z,62.57
2023-03-30T11:25:36.793Z,62.73
2023-03-30T11:30:44.544Z,62.50
2023-03-30T11:36:11.464Z,62.31
2023-03-30T11:41:22.905Z,62.34
2023-03-30T11:46:51.642Z,61.88
2023-03-30T11:52:27.753Z,61.29
2023-03-30T11:57:44.905Z,61.68
2023-03-30T12:02:56.138Z,61.32
2023-03-30T12:08:45.001Z,60.63
2023-03-30T12:13:52.148Z,60.20
2023-03-30T12:19:56.904Z,60.50
2023-03-30T12:26:04.024Z,60.85
2023-03-30T12:31:07.817Z,60.53
2023-03-30T12:36:51.888Z,60.39
2023-03-30T12:42:06.013Z,60.49
2023-03-30T12:47:24.079Z,60.58
2023-03-30T12:52:43.643Z,60.49
2023-03-30T12:58:16.229Z,60.09
2023-03-30T13:03:53.178Z,60.38
2023-03-30T13:09:11.720Z,60.90
2023-03-30T13:14:39.989Z,61.29
2023-03-30T13:20:15.360Z,62.03
2023-03-30T13:26:05.460Z,62.57
2023-03-30T13:31:12.084Z,63.00
2023-03-30T13:36:22.010Z,63.78
2023-03-30T13:41:36.975Z,64.11
2023-03-30T13:47:06.218Z,64.32
2023-03-30T13:52:38.333Z,64.35
2023-03-30T13:57:44.366Z,64.20
2023-03-30T14:02:49.504Z,64.39
2023-03-30T14:07:58.124Z,64.57
2023-03-30T14:13:04.934Z,64.98
2023-03-30T14:18:13.794Z,65.22
2023-03-30T14:23:40.829Z,65.17
2023-03-30T14:28:44.700Z,65.16
2023-03-30T14:34:25.862Z,64.78
2023-03-30T14:39:53.828Z,64.92
2023-03-30T14:44:58.337Z,64.82
2023-03-30T14:50:07.895Z,64.78
2023-03-30T14:55:22.783Z,65.10
2023-03-30T15:00:26.752Z,65.54
2023-03-30T15:05:38.994Z,66.24
2023-03-30T15:10:51.209Z,66.98
2023-03-30T15:16:01.906Z,67.98
2023-03-30T15:21:25.879Z,68.94
2023-03-30T15:26:29.387Z,69.45
2023-03-30T15:31:35.646Z,70.71
2023-03-30T15:36:40.505Z,72.76
2023-03-30T15:41:56.405Z,74.01
2023-03-30T15:47:20.871Z,75.26
2023-03-30T15:52:33.262Z,75.47
2023-03-30T15:57:53.042Z,75.62
2023-03-30T16:02:59.924Z,75.65
2023-03-30T16:08:06.482Z,76.31
2023-03-30T16:13:17.565Z,76.20
2023-03-30T16:18:42.728Z,76.38
2023-03-30T16:23:52.511Z,76.22
2023-03-30T16:28:56.235Z,76.11
2023-03-30T16:34:02.229Z,76.19
2023-03-30T16:39:17.670Z,76.41
2023-03-30T16:44:23.214Z,76.37
2023-03-30T16:49:27.026Z,75.93
2023-03-30T16:54:32.655Z,75.83
2023-03-30T16:59:36.685Z,76.20
2023-03-30T17:04:40.296Z,76.36
2023-03-30T17:09:53.926Z,76.05
2023-03-30T17:14:57.559Z,76.28
2023-03-30T17:20:24.961Z,76.23
2023-03-30T17:25:28.400Z,76.22
2023-03-30T17:30:36.488Z,76.46
2023-03-30T17:35:41.013Z,76.47
2023-03-30T17:40:45.004Z,76.66
2023-03-30T17:45:49.171Z,76.60
2023-03-30T17:50:52.768Z,76.85
2023-03-30T17:55:56.250Z,76.92
2023-03-30T18:01:05.457Z,77.22
2023-03-30T18:06:12.962Z,77.42
2023-03-30T18:11:16.729Z,78.18
2023-03-30T18:16:31.851Z,79.64
2023-03-30T18:21:36.310Z,80.44
2023-03-30T18:26:43.017Z,81.14
2023-03-30T18:31:47.185Z,81.92
2023-03-30T18:36:51.846Z,82.04
2023-03-30T18:41:58.432Z,82.31
2023-03-30T18:47:01.973Z,82.98
2023-03-30T18:52:05.571Z,84.42
2023-03-30T18:57:14.853Z,86.05
2023-03-30T19:02:39.103Z,86.44
2023-03-30T19:07:43.682Z,86.80
2023-03-30T19:13:08.069Z,87.48
2023-03-30T19:18:12.149Z,88.18
2023-03-30T19:23:16.746Z,87.77
2023-03-30T19:28:24.706Z,88.25
2023-03-30T19:33:30.938Z,88.44
2023-03-30T19:38:39.822Z,88.56
2023-03-30T19:43:50.162Z,88.70
2023-03-30T19:49:09.233Z,89.61
2023-03-30T19:54:12.705Z,90.39
2023-03-30T19:59:16.874Z,90.64
2023-03-30T20:04:22.570Z,90.93
2023-03-30T20:09:28.513Z,91.15
2023-03-30T20:14:32.983Z,91.35
2023-03-30T20:19:36.731Z,92.04
2023-03-30T20:24:40.659Z,92.50
2023-03-30T20:29:44.243Z,92.63
2023-03-30T20:34:49.437Z,93.35
2023-03-30T20:39:52.858Z,94.33
2023-03-30T20:45:08.861Z,95.25
2023-03-30T20:50:12.515Z,95.47
2023-03-30T20:55:17.113Z,96.22
2023-03-30T21:00:20.836Z,96.78
2023-03-30T21:05:34.784Z,96.87
2023-03-30T21:10:42.719Z,97.09
2023-03-30T21:15:46.528Z,97.15
2023-03-30T21:20:49.710Z,97.58
2023-03-30T21:26:03.149Z,97.83
2023-03-30T21:31:51.119Z,99.23
2023-03-30T21:36:54.558Z,99.98
2023-03-30T21:41:57.950Z,100.00
2023-03-30T21:47:01.650Z,100.00
2023-03-30T21:52:05.349Z,100.00
2023-03-30T21:57:24.293Z,100.00
2023-03-30T22:02:28.025Z,100.00
2023-03-30T22:07:34.003Z,100.00
2023-03-30T22:12:37.699Z,100.00
2023-03-30T22:17:45.895Z,100.00
2023-03-30T22:22:49.735Z,100.00
2023-03-30T22:27:54.312Z,100.00
2023-03-30T22:33:00.555Z,100.00
2023-03-30T22:38:04.203Z,100.00
2023-03-30T22:43:11.812Z,100.00
2023-03-30T22:48:43.802Z,100.00
2023-03-30T22:54:07.419Z,100.00
2023-03-30T22:59:33.986Z,100.00
2023-03-30T23:04:37.451Z,100.00
2023-03-30T23:09:47.506Z,100.00
2023-03-30T23:14:51.402Z,100.00
2023-03-30T23:19:58.228Z,100.00
2023-03-30T23:25:04.582Z,100.00
2023-03-30T23:30:09.291Z,100.00
2023-03-30T23:35:13.049Z,100.00
2023-03-30T23:40:30.972Z,100.00
2023-03-30T23:45:37.309Z,100.00
2023-03-30T23:50:57.046Z,100.00
2023-03-30T23:56:32.643Z,100.00
